Time;durP1;ratioP1;P1;durP2;ratioP2;P2;SDS_P1;SDS_P2;PMS_P1;PMS_P2;Temp;Humidity;BMP_temperature;BMP_pressure;BME280_temperature;BME280_humidity;BME280_pressure;Samples;Min_cycle;Max_cycle;Signal;HPM_P1;HPM_P2
2023/09/09 00:01:08;;;;;;;;;;;;;;;;;;5092648;28;19951;-71
2023/09/09 00:03:34;;;;;;;;;;;;;;;;;;5092494;28;19919;-71
2023/09/09 00:06:00;;;;;;;;;;;;;;;;;;5091504;28;19968;-71
2023/09/09 00:08:26;;;;;;;;;;;;;;;;;;5074124;28;19994;-71
2023/09/09 00:10:52;;;;;;;;;;;;;;;;;;5092808;28;19908;-71
2023/09/09 00:13:18;;;;;;;;;;;;;;;;;;5092299;28;20411;-71
2023/09/09 00:15:44;;;;;;;;;;;;;;;;;;5092397;28;19915;-72
2023/09/09 00:18:10;;;;;;;;;;;;;;;;;;5092199;28;19944;-71
2023/09/09 00:20:36;;;;;;;;;;;;;;;;;;5092409;28;19908;-71
2023/09/09 00:23:07;;;;;;;;;;;;;;;;;;5091964;28;19961;-71
2023/09/09 00:25:33;;;;;;;;;;;;;;;;;;5091685;28;19967;-71
2023/09/09 00:27:59;;;;;;;;;;;;;;;;;;5073628;28;20393;-71
2023/09/09 00:30:25;;;;;;;;;;;;;;;;;;5092009;28;19963;-71
2023/09/09 00:32:51;;;;;;;;;;;;;;;;;;5092523;28;19961;-71
2023/09/09 00:35:16;;;;;;;;;;;;;;;;;;5091613;28;19995;-71
2023/09/09 00:37:42;;;;;;;;;;;;;;;;;;5091916;28;19973;-71
2023/09/09 00:40:08;;;;;;;;;;;;;;;;;;5092133;28;20385;-71
2023/09/09 00:42:34;;;;;;;;;;;;;;;;;;5091923;28;19978;-71
2023/09/09 00:45:00;;;;;;;;;;;;;;;;;;5091627;28;19962;-71
2023/09/09 00:47:26;;;;;;;;;;;;;;;;;;5091044;28;20366;-71
2023/09/09 00:49:52;;;;;;;;;;;;;;;;;;5091778;28;19954;-71
2023/09/09 00:52:18;;;;;;;;;;;;;;;;;;5091880;28;20028;-71
2023/09/09 00:54:44;;;;;;;;;;;;;;;;;;5091025;28;19978;-71
2023/09/09 00:57:10;;;;;;;;;;;;;;;;;;5091285;28;20289;-71
2023/09/09 00:59:36;;;;;;;;;;;;;;;;;;5091335;28;19951;-71
2023/09/09 01:02:02;;;;;;;;;;;;;;;;;;5091381;28;19947;-71
2023/09/09 01:04:28;;;;;;;;;;;;;;;;;;5090992;28;19951;-71
2023/09/09 01:06:54;;;;;;;;;;;;;;;;;;5091544;28;19951;-71
2023/09/09 01:09:20;;;;;;;;;;;;;;;;;;5090951;28;20222;-71
2023/09/09 01:11:46;;;;;;;;;;;;;;;;;;5091153;28;19908;-71
2023/09/09 01:14:13;;;;;;;;;;;;;;;;;;5091462;28;19909;-71
2023/09/09 01:16:40;;;;;;;;;;;;;;;;;;5091658;28;19962;-71
2023/09/09 01:19:05;;;;;;;;;;;;;;;;;;5090822;28;19908;-71
2023/09/09 01:21:32;;;;;;;;;;;;;;;;;;5090293;28;19939;-71
2023/09/09 01:23:58;;;;;;;;;;;;;;;;;;5091086;28;19920;-71
2023/09/09 01:26:24;;;;;;;;;;;;;;;;;;5090554;28;19920;-71
2023/09/09 01:28:51;;;;;;;;;;;;;;;;;;5090729;28;19943;-71
2023/09/09 01:31:17;;;;;;;;;;;;;;;;;;5090628;28;19908;-72
2023/09/09 01:33:43;;;;;;;;;;;;;;;;;;5090483;28;19959;-71
2023/09/09 01:36:11;;;;;;;;;;;;;;;;;;5090892;28;19966;-71
2023/09/09 01:38:37;;;;;;;;;;;;;;;;;;5090926;28;19912;-71
2023/09/09 01:41:06;;;;;;;;;;;;;;;;;;5090387;28;19960;-71
2023/09/09 01:43:31;;;;;;;;;;;;;;;;;;5090297;28;19919;-71
2023/09/09 01:45:57;;;;;;;;;;;;;;;;;;5090169;28;19951;-71
2023/09/09 01:48:25;;;;;;;;;;;;;;;;;;5090214;28;19963;-71
2023/09/09 01:50:51;;;;;;;;;;;;;;;;;;5090506;28;19953;-71
2023/09/09 01:53:17;;;;;;;;;;;;;;;;;;5090487;28;20381;-71
2023/09/09 01:55:44;;;;;;;;;;;;;;;;;;5090038;28;19946;-71
2023/09/09 01:58:10;;;;;;;;;;;;;;;;;;5089653;28;19995;-71
2023/09/09 02:00:36;;;;;;;;;;;;;;;;;;5090461;28;20003;-71
2023/09/09 02:03:02;;;;;;;;;;;;;;;;;;5090338;28;20372;-71
2023/09/09 02:05:28;;;;;;;;;;;;;;;;;;5071847;28;19997;-71
2023/09/09 02:07:54;;;;;;;;;;;;;;;;;;5089897;28;19975;-71
2023/09/09 02:10:20;;;;;;;;;;;;;;;;;;5090421;28;19952;-71
2023/09/09 02:12:46;;;;;;;;;;;;;;;;;;5090389;28;20374;-71
2023/09/09 02:15:13;;;;;;;;;;;;;;;;;;5090164;28;20725;-71
2023/09/09 02:17:39;;;;;;;;;;;;;;;;;;5089612;28;19908;-71
2023/09/09 02:20:06;;;;;;;;;;;;;;;;;;5090411;28;20280;-70
2023/09/09 02:22:32;;;;;;;;;;;;;;;;;;5072852;28;20460;-71
2023/09/09 02:24:58;;;;;;;;;;;;;;;;;;5091204;28;20002;-71
2023/09/09 02:27:23;;;;;;;;;;;;;;;;;;5090948;28;19946;-71
2023/09/09 02:29:49;;;;;;;;;;;;;;;;;;5090698;28;19955;-71
2023/09/09 02:32:15;;;;;;;;;;;;;;;;;;5091724;28;19908;-71
2023/09/09 02:34:41;;;;;;;;;;;;;;;;;;5092207;28;20380;-71
2023/09/09 02:37:07;;;;;;;;;;;;;;;;;;5073674;28;20353;-71
2023/09/09 02:39:33;;;;;;;;;;;;;;;;;;5091965;28;19919;-71
2023/09/09 02:41:59;;;;;;;;;;;;;;;;;;5091851;28;20318;-70
2023/09/09 02:44:25;;;;;;;;;;;;;;;;;;5091965;28;19915;-70
2023/09/09 02:46:51;;;;;;;;;;;;;;;;;;5097646;28;19916;-71
2023/09/09 02:49:17;;;;;;;;;;;;;;;;;;5096779;28;19908;-71
2023/09/09 02:51:43;;;;;;;;;;;;;;;;;;5097392;28;19959;-71
2023/09/09 02:54:09;;;;;;;;;;;;;;;;;;5100530;28;19908;-71
2023/09/09 02:56:35;;;;;;;;;;;;;;;;;;5100277;28;19915;-71
2023/09/09 02:59:01;;;;;;;;;;;;;;;;;;5098110;28;19908;-71
2023/09/09 03:01:27;;;;;;;;;;;;;;;;;;5091103;28;19951;-71
2023/09/09 03:03:52;;;;;;;;;;;;;;;;;;5090848;28;19955;-71
2023/09/09 03:06:20;;;;;;;;;;;;;;;;;;5090701;28;19967;-71
2023/09/09 03:08:45;;;;;;;;;;;;;;;;;;5090698;28;19908;-71
2023/09/09 03:11:11;;;;;;;;;;;;;;;;;;5089930;28;19947;-72
2023/09/09 03:13:37;;;;;;;;;;;;;;;;;;5089691;28;20024;-72
2023/09/09 03:16:04;;;;;;;;;;;;;;;;;;5089507;28;20415;-71
2023/09/09 03:18:30;;;;;;;;;;;;;;;;;;5088857;28;19919;-71
2023/09/09 03:20:56;;;;;;;;;;;;;;;;;;5089272;28;19944;-71
2023/09/09 03:23:22;;;;;;;;;;;;;;;;;;5071280;28;19993;-71
2023/09/09 03:25:49;;;;;;;;;;;;;;;;;;5089193;28;19954;-71
2023/09/09 03:28:15;;;;;;;;;;;;;;;;;;5089141;28;20049;-71
2023/09/09 03:30:41;;;;;;;;;;;;;;;;;;5089311;28;19998;-71
2023/09/09 03:33:07;;;;;;;;;;;;;;;;;;5088731;28;19939;-71
2023/09/09 03:35:33;;;;;;;;;;;;;;;;;;5088946;28;19908;-71
2023/09/09 03:37:59;;;;;;;;;;;;;;;;;;5089317;28;19967;-71
2023/09/09 03:40:25;;;;;;;;;;;;;;;;;;5091625;28;20007;-71
2023/09/09 03:42:51;;;;;;;;;;;;;;;;;;5074917;28;19962;-71
2023/09/09 03:45:17;;;;;;;;;;;;;;;;;;5092536;28;19955;-71
2023/09/09 03:47:43;;;;;;;;;;;;;;;;;;5092847;28;19916;-71
2023/09/09 03:50:09;;;;;;;;;;;;;;;;;;5093039;28;19919;-71
2023/09/09 03:52:35;;;;;;;;;;;;;;;;;;5092995;28;19912;-71
2023/09/09 03:55:01;;;;;;;;;;;;;;;;;;5092405;28;19919;-71
2023/09/09 03:57:27;;;;;;;;;;;;;;;;;;5093287;28;19943;-71
2023/09/09 03:59:53;;;;;;;;;;;;;;;;;;5092649;28;19955;-71
2023/09/09 04:02:19;;;;;;;;;;;;;;;;;;5092225;28;19916;-71
2023/09/09 04:04:45;;;;;;;;;;;;;;;;;;5092268;28;19962;-71
2023/09/09 04:07:11;;;;;;;;;;;;;;;;;;5092114;28;19955;-71
2023/09/09 04:09:40;;;;;;;;;;;;;;;;;;5092474;28;19962;-71
2023/09/09 04:12:06;;;;;;;;;;;;;;;;;;5092344;28;19958;-71
2023/09/09 04:14:32;;;;;;;;;;;;;;;;;;5091850;28;19958;-71
2023/09/09 04:16:58;;;;;;;;;;;;;;;;;;5092281;28;19985;-71
2023/09/09 04:19:25;;;;;;;;;;;;;;;;;;5091715;28;19908;-71
2023/09/09 04:21:51;;;;;;;;;;;;;;;;;;5091114;28;19912;-71
2023/09/09 04:24:17;;;;;;;;;;;;;;;;;;5091970;28;20398;-71
2023/09/09 04:26:43;;;;;;;;;;;;;;;;;;5092155;28;19920;-71
2023/09/09 04:29:09;;;;;;;;;;;;;;;;;;5092030;28;19908;-71
2023/09/09 04:31:35;;;;;;;;;;;;;;;;;;5091237;28;20031;-71
2023/09/09 04:34:01;;;;;;;;;;;;;;;;;;5092089;28;20348;-71
2023/09/09 04:36:27;;;;;;;;;;;;;;;;;;5092192;28;20565;-71
2023/09/09 04:38:53;;;;;;;;;;;;;;;;;;5092093;28;19939;-71
2023/09/09 04:41:25;;;;;;;;;;;;;;;;;;5091648;28;19974;-71
2023/09/09 04:43:52;;;;;;;;;;;;;;;;;;5092133;28;19912;-71
2023/09/09 04:46:18;;;;;;;;;;;;;;;;;;5091035;28;19939;-71
2023/09/09 04:48:43;;;;;;;;;;;;;;;;;;5091916;28;19944;-71
2023/09/09 04:51:09;;;;;;;;;;;;;;;;;;5091059;28;19974;-71
2023/09/09 04:53:35;;;;;;;;;;;;;;;;;;5091225;28;19998;-71
2023/09/09 04:56:03;;;;;;;;;;;;;;;;;;5091481;28;19908;-71
2023/09/09 04:58:29;;;;;;;;;;;;;;;;;;5091146;28;19915;-71
2023/09/09 05:00:55;;;;;;;;;;;;;;;;;;5091314;28;20625;-71
2023/09/09 05:03:21;;;;;;;;;;;;;;;;;;5091504;28;19954;-71
2023/09/09 05:05:47;;;;;;;;;;;;;;;;;;5090939;28;20420;-71
2023/09/09 05:08:13;;;;;;;;;;;;;;;;;;5090745;28;19948;-71
2023/09/09 05:10:39;;;;;;;;;;;;;;;;;;5073102;28;20063;-71
2023/09/09 05:13:05;;;;;;;;;;;;;;;;;;5091248;28;19915;-72
2023/09/09 05:15:31;;;;;;;;;;;;;;;;;;5091072;28;19908;-70
2023/09/09 05:17:57;;;;;;;;;;;;;;;;;;5090496;28;19962;-70
2023/09/09 05:20:23;;;;;;;;;;;;;;;;;;5090871;28;19912;-70
2023/09/09 05:22:49;;;;;;;;;;;;;;;;;;5090901;28;19991;-71
2023/09/09 05:25:15;;;;;;;;;;;;;;;;;;5090392;28;19978;-71
2023/09/09 05:27:41;;;;;;;;;;;;;;;;;;5089983;28;19966;-71
2023/09/09 05:30:07;;;;;;;;;;;;;;;;;;5090593;28;19908;-71
2023/09/09 05:32:35;;;;;;;;;;;;;;;;;;5090942;28;20335;-71
2023/09/09 05:35:01;;;;;;;;;;;;;;;;;;5090792;28;19908;-73
2023/09/09 05:37:27;;;;;;;;;;;;;;;;;;5098125;28;19916;-71
2023/09/09 05:39:53;;;;;;;;;;;;;;;;;;5110760;28;19908;-71
2023/09/09 05:42:19;;;;;;;;;;;;;;;;;;5110894;28;19919;-71
2023/09/09 05:44:45;;;;;;;;;;;;;;;;;;5093510;28;19957;-74
2023/09/09 05:47:11;;;;;;;;;;;;;;;;;;5090217;28;20086;-71
2023/09/09 05:49:37;;;;;;;;;;;;;;;;;;5090844;28;19912;-71
2023/09/09 05:52:04;;;;;;;;;;;;;;;;;;5072149;28;19911;-71
2023/09/09 05:54:30;;;;;;;;;;;;;;;;;;5090442;28;19919;-71
2023/09/09 05:56:56;;;;;;;;;;;;;;;;;;5090598;28;19951;-70
2023/09/09 05:59:22;;;;;;;;;;;;;;;;;;5090218;28;20362;-73
2023/09/09 06:01:48;;;;;;;;;;;;;;;;;;5090585;28;20022;-71
2023/09/09 06:04:15;;;;;;;;;;;;;;;;;;5089343;28;19955;-72
2023/09/09 06:06:41;;;;;;;;;;;;;;;;;;5090117;28;19920;-72
2023/09/09 06:09:07;;;;;;;;;;;;;;;;;;5090042;28;19947;-72
2023/09/09 06:11:33;;;;;;;;;;;;;;;;;;5090192;28;19946;-72
2023/09/09 06:13:59;;;;;;;;;;;;;;;;;;5089664;28;19908;-71
2023/09/09 06:16:25;;;;;;;;;;;;;;;;;;5094271;28;20020;-69
2023/09/09 06:18:51;;;;;;;;;;;;;;;;;;5089610;28;19923;-70
2023/09/09 06:21:17;;;;;;;;;;;;;;;;;;5089790;28;19998;-71
2023/09/09 06:23:43;;;;;;;;;;;;;;;;;;5104065;28;19955;-70
2023/09/09 06:26:09;;;;;;;;;;;;;;;;;;5091916;28;20396;-70
2023/09/09 06:28:35;;;;;;;;;;;;;;;;;;5110205;28;20400;-70
2023/09/09 06:31:00;;;;;;;;;;;;;;;;;;5110354;28;19955;-70
2023/09/09 06:33:27;;;;;;;;;;;;;;;;;;5110674;28;20390;-70
2023/09/09 06:35:54;;;;;;;;;;;;;;;;;;5110326;28;19915;-71
2023/09/09 06:38:20;;;;;;;;;;;;;;;;;;5109099;28;19950;-70
2023/09/09 06:40:46;;;;;;;;;;;;;;;;;;5091431;28;19943;-70
2023/09/09 06:43:12;;;;;;;;;;;;;;;;;;5110010;28;19973;-70
2023/09/09 06:45:38;;;;;;;;;;;;;;;;;;5109801;28;19954;-70
2023/09/09 06:48:03;;;;;;;;;;;;;;;;;;5090515;28;19966;-70
2023/09/09 06:50:29;;;;;;;;;;;;;;;;;;5109271;28;19977;-69
2023/09/09 06:52:55;;;;;;;;;;;;;;;;;;5107866;28;20389;-70
2023/09/09 06:55:22;;;;;;;;;;;;;;;;;;5106533;28;19935;-70
2023/09/09 06:57:48;;;;;;;;;;;;;;;;;;5075756;28;19998;-70
2023/09/09 07:00:14;;;;;;;;;;;;;;;;;;5089023;28;19912;-70
2023/09/09 07:02:40;;;;;;;;;;;;;;;;;;5088379;28;19943;-71
2023/09/09 07:05:06;;;;;;;;;;;;;;;;;;5089352;28;19915;-70
2023/09/09 07:07:32;;;;;;;;;;;;;;;;;;5088274;28;19916;-70
2023/09/09 07:09:58;;;;;;;;;;;;;;;;;;5101272;28;19994;-70
2023/09/09 07:12:24;;;;;;;;;;;;;;;;;;5107588;28;19943;-70
2023/09/09 07:14:50;;;;;;;;;;;;;;;;;;5108993;28;20001;-71
2023/09/09 07:17:16;;;;;;;;;;;;;;;;;;5107486;28;20042;-70
2023/09/09 07:19:42;;;;;;;;;;;;;;;;;;5112070;28;20009;-71
2023/09/09 07:22:08;;;;;;;;;;;;;;;;;;5107116;28;20329;-69
2023/09/09 07:24:34;;;;;;;;;;;;;;;;;;5095889;28;20370;-69
2023/09/09 07:27:00;;;;;;;;;;;;;;;;;;5092548;28;19968;-70
2023/09/09 07:29:27;;;;;;;;;;;;;;;;;;5110407;28;19919;-70
2023/09/09 07:31:53;;;;;;;;;;;;;;;;;;5112108;28;19908;-70
2023/09/09 07:34:23;;;;;;;;;;;;;;;;;;5111054;28;19970;-70
2023/09/09 07:36:49;;;;;;;;;;;;;;;;;;5095064;28;20052;-70
2023/09/09 07:39:15;;;;;;;;;;;;;;;;;;5113374;28;19947;-70
2023/09/09 07:41:40;;;;;;;;;;;;;;;;;;5110031;28;20433;-70
2023/09/09 07:44:06;;;;;;;;;;;;;;;;;;5092217;28;19909;-70
2023/09/09 07:46:32;;;;;;;;;;;;;;;;;;5091085;28;19955;-69
2023/09/09 07:48:58;;;;;;;;;;;;;;;;;;5090716;28;20000;-69
2023/09/09 07:51:24;;;;;;;;;;;;;;;;;;5091091;28;19912;-69
2023/09/09 07:53:52;;;;;;;;;;;;;;;;;;5091041;28;19996;-69
2023/09/09 07:56:18;;;;;;;;;;;;;;;;;;5091035;28;19921;-69
2023/09/09 07:58:44;;;;;;;;;;;;;;;;;;5091035;28;19959;-69
2023/09/09 08:01:10;;;;;;;;;;;;;;;;;;5090866;28;19948;-69
2023/09/09 08:03:36;;;;;;;;;;;;;;;;;;5090458;28;19912;-69
2023/09/09 08:06:02;;;;;;;;;;;;;;;;;;5090032;28;20032;-70
2023/09/09 08:08:28;;;;;;;;;;;;;;;;;;5090818;28;19951;-69
2023/09/09 08:10:54;;;;;;;;;;;;;;;;;;5091214;28;19947;-69
2023/09/09 08:13:20;;;;;;;;;;;;;;;;;;5091770;28;19908;-69
2023/09/09 08:15:46;;;;;;;;;;;;;;;;;;5091805;28;19908;-69
2023/09/09 08:18:12;;;;;;;;;;;;;;;;;;5091474;28;19915;-70
2023/09/09 08:20:38;;;;;;;;;;;;;;;;;;5090777;28;20007;-69
2023/09/09 08:23:04;;;;;;;;;;;;;;;;;;5089958;28;19934;-69
2023/09/09 08:25:32;;;;;;;;;;;;;;;;;;5089815;28;19959;-69
2023/09/09 08:27:59;;;;;;;;;;;;;;;;;;5090171;28;19923;-70
2023/09/09 08:30:25;;;;;;;;;;;;;;;;;;5090260;28;19954;-70
2023/09/09 08:32:51;;;;;;;;;;;;;;;;;;5090421;28;20005;-71
2023/09/09 08:35:17;;;;;;;;;;;;;;;;;;5090499;28;19939;-71
2023/09/09 08:37:43;;;;;;;;;;;;;;;;;;5091592;28;20387;-70
2023/09/09 08:40:09;;;;;;;;;;;;;;;;;;5091886;28;20547;-69
2023/09/09 08:42:35;;;;;;;;;;;;;;;;;;5073532;28;20373;-69
2023/09/09 08:45:01;;;;;;;;;;;;;;;;;;5091955;28;19915;-70
2023/09/09 08:47:29;;;;;;;;;;;;;;;;;;5090879;28;20014;-69
2023/09/09 08:49:55;;;;;;;;;;;;;;;;;;5091465;28;19922;-70
2023/09/09 08:52:21;;;;;;;;;;;;;;;;;;5091694;28;19908;-70
2023/09/09 08:54:47;;;;;;;;;;;;;;;;;;5091422;28;19952;-70
2023/09/09 08:57:13;;;;;;;;;;;;;;;;;;5090822;28;19960;-70
2023/09/09 08:59:39;;;;;;;;;;;;;;;;;;5091474;28;19947;-69
2023/09/09 09:02:05;;;;;;;;;;;;;;;;;;5091461;28;19956;-73
2023/09/09 09:04:30;;;;;;;;;;;;;;;;;;5090146;28;19947;-69
2023/09/09 09:06:56;;;;;;;;;;;;;;;;;;5091283;28;19955;-70
2023/09/09 09:09:23;;;;;;;;;;;;;;;;;;5091058;28;19936;-71
2023/09/09 09:11:49;;;;;;;;;;;;;;;;;;5091293;28;19908;-70
2023/09/09 09:14:15;;;;;;;;;;;;;;;;;;5090799;28;19951;-70
2023/09/09 09:16:41;;;;;;;;;;;;;;;;;;5091222;28;19951;-71
2023/09/09 09:19:07;;;;;;;;;;;;;;;;;;5090467;28;19909;-70
2023/09/09 09:21:33;;;;;;;;;;;;;;;;;;5091205;28;19916;-70
2023/09/09 09:23:59;;;;;;;;;;;;;;;;;;5090770;28;19926;-71
2023/09/09 09:26:25;;;;;;;;;;;;;;;;;;5090819;28;19942;-71
2023/09/09 09:28:51;;;;;;;;;;;;;;;;;;5091263;28;19941;-72
2023/09/09 09:31:17;;;;;;;;;;;;;;;;;;5090685;28;19930;-71
2023/09/09 09:33:43;;;;;;;;;;;;;;;;;;5091272;28;19915;-71
2023/09/09 09:36:09;;;;;;;;;;;;;;;;;;5091239;28;19914;-71
2023/09/09 09:38:35;;;;;;;;;;;;;;;;;;5090653;28;19912;-70
2023/09/09 09:41:01;;;;;;;;;;;;;;;;;;5091693;28;19978;-70
2023/09/09 09:43:27;;;;;;;;;;;;;;;;;;5072733;28;19951;-71
2023/09/09 09:45:56;;;;;;;;;;;;;;;;;;5091208;28;19974;-71
2023/09/09 09:48:22;;;;;;;;;;;;;;;;;;5092502;28;19916;-70
2023/09/09 09:50:48;;;;;;;;;;;;;;;;;;5091864;28;19915;-70
2023/09/09 09:53:14;;;;;;;;;;;;;;;;;;5091666;28;19916;-71
2023/09/09 09:55:40;;;;;;;;;;;;;;;;;;5092226;28;19908;-69
2023/09/09 09:58:06;;;;;;;;;;;;;;;;;;5091023;28;19908;-70
2023/09/09 10:00:32;;;;;;;;;;;;;;;;;;5090993;28;20393;-70
2023/09/09 10:02:58;;;;;;;;;;;;;;;;;;5091380;28;19947;-69
2023/09/09 10:05:24;;;;;;;;;;;;;;;;;;5093094;28;20293;-70
2023/09/09 10:07:49;;;;;;;;;;;;;;;;;;5096908;28;19916;-71
2023/09/09 10:10:15;;;;;;;;;;;;;;;;;;5094412;28;20012;-69
2023/09/09 10:12:42;;;;;;;;;;;;;;;;;;5095549;28;19919;-70
2023/09/09 10:15:08;;;;;;;;;;;;;;;;;;5093329;28;19954;-70
2023/09/09 10:17:33;;;;;;;;;;;;;;;;;;5093328;28;19908;-69
2023/09/09 10:19:59;;;;;;;;;;;;;;;;;;5094003;28;19930;-70
2023/09/09 10:22:25;;;;;;;;;;;;;;;;;;5091872;28;20363;-69
2023/09/09 10:24:51;;;;;;;;;;;;;;;;;;5091712;28;20334;-70
2023/09/09 10:27:18;;;;;;;;;;;;;;;;;;5091625;28;19966;-70
2023/09/09 10:29:44;;;;;;;;;;;;;;;;;;5091035;28;19912;-70
2023/09/09 10:32:10;;;;;;;;;;;;;;;;;;5090176;28;20418;-70
2023/09/09 10:34:37;;;;;;;;;;;;;;;;;;5089596;28;19947;-70
2023/09/09 10:37:03;;;;;;;;;;;;;;;;;;5089632;28;19908;-71
2023/09/09 10:39:29;;;;;;;;;;;;;;;;;;5089874;28;19959;-71
2023/09/09 10:41:56;;;;;;;;;;;;;;;;;;5089802;28;19947;-71
2023/09/09 10:44:22;;;;;;;;;;;;;;;;;;5089504;28;19947;-73
2023/09/09 10:46:47;;;;;;;;;;;;;;;;;;5089311;28;19956;-71
2023/09/09 10:49:13;;;;;;;;;;;;;;;;;;5089067;28;19944;-70
2023/09/09 10:51:39;;;;;;;;;;;;;;;;;;5089612;28;20335;-70
2023/09/09 10:54:05;;;;;;;;;;;;;;;;;;5088895;28;19951;-70
2023/09/09 10:56:31;;;;;;;;;;;;;;;;;;5088944;28;19985;-70
2023/09/09 10:58:57;;;;;;;;;;;;;;;;;;5089391;28;19954;-70
2023/09/09 11:01:23;;;;;;;;;;;;;;;;;;5089633;28;19920;-70
2023/09/09 11:03:51;;;;;;;;;;;;;;;;;;5089620;28;19908;-70
2023/09/09 11:06:17;;;;;;;;;;;;;;;;;;5089381;28;19908;-70
2023/09/09 11:08:43;;;;;;;;;;;;;;;;;;5087430;28;19942;-70
2023/09/09 11:11:09;;;;;;;;;;;;;;;;;;5087931;28;19958;-70
2023/09/09 11:13:35;;;;;;;;;;;;;;;;;;5087924;28;19948;-70
2023/09/09 11:16:01;;;;;;;;;;;;;;;;;;5087425;28;20416;-70
2023/09/09 11:18:27;;;;;;;;;;;;;;;;;;5087292;28;19962;-68
2023/09/09 11:20:53;;;;;;;;;;;;;;;;;;5087373;28;19944;-73
2023/09/09 11:23:22;;;;;;;;;;;;;;;;;;5069176;28;19912;-70
2023/09/09 11:25:48;;;;;;;;;;;;;;;;;;5087371;28;20346;-70
2023/09/09 11:28:14;;;;;;;;;;;;;;;;;;5087473;28;19967;-71
2023/09/09 11:30:40;;;;;;;;;;;;;;;;;;5089446;28;19965;-70
2023/09/09 11:33:06;;;;;;;;;;;;;;;;;;5089272;28;19999;-70
2023/09/09 11:35:32;;;;;;;;;;;;;;;;;;5088897;28;19950;-70
2023/09/09 11:37:57;;;;;;;;;;;;;;;;;;5089027;28;19947;-70
2023/09/09 11:40:25;;;;;;;;;;;;;;;;;;5088845;28;20394;-69
2023/09/09 11:42:51;;;;;;;;;;;;;;;;;;5089089;28;19909;-69
2023/09/09 11:45:17;;;;;;;;;;;;;;;;;;5088687;28;20398;-69
2023/09/09 11:47:43;;;;;;;;;;;;;;;;;;5088485;28;20011;-69
2023/09/09 11:50:08;;;;;;;;;;;;;;;;;;5088829;28;20378;-70
2023/09/09 11:52:34;;;;;;;;;;;;;;;;;;5088872;28;20385;-69
2023/09/09 11:55:00;;;;;;;;;;;;;;;;;;5088723;28;19927;-70
2023/09/09 11:57:26;;;;;;;;;;;;;;;;;;5088876;28;19958;-70
2023/09/09 11:59:57;;;;;;;;;;;;;;;;;;5089251;28;19986;-70
2023/09/09 12:02:23;;;;;;;;;;;;;;;;;;5090622;28;20392;-70
2023/09/09 12:04:49;;;;;;;;;;;;;;;;;;5092470;28;19969;-69
2023/09/09 12:07:16;;;;;;;;;;;;;;;;;;5092557;28;20016;-70
2023/09/09 12:09:42;;;;;;;;;;;;;;;;;;5092526;28;19973;-70
2023/09/09 12:12:08;;;;;;;;;;;;;;;;;;5092311;28;19908;-69
2023/09/09 12:14:34;;;;;;;;;;;;;;;;;;5092236;28;20385;-69
2023/09/09 12:17:00;;;;;;;;;;;;;;;;;;5091786;28;20455;-69
2023/09/09 12:19:25;;;;;;;;;;;;;;;;;;5091740;28;19952;-70
2023/09/09 12:21:52;;;;;;;;;;;;;;;;;;5092354;28;19931;-70
2023/09/09 12:24:18;;;;;;;;;;;;;;;;;;5091718;28;19927;-70
2023/09/09 12:26:43;;;;;;;;;;;;;;;;;;5091765;28;19917;-69
2023/09/09 12:29:10;;;;;;;;;;;;;;;;;;5091981;28;19908;-69
2023/09/09 12:31:36;;;;;;;;;;;;;;;;;;5092295;28;20292;-70
2023/09/09 12:34:02;;;;;;;;;;;;;;;;;;5091491;28;19908;-70
2023/09/09 12:36:27;;;;;;;;;;;;;;;;;;5091967;28;19948;-70
2023/09/09 12:38:53;;;;;;;;;;;;;;;;;;5091769;28;19999;-71
2023/09/09 12:41:20;;;;;;;;;;;;;;;;;;5073421;28;19951;-70
2023/09/09 12:43:46;;;;;;;;;;;;;;;;;;5091448;28;19915;-69
2023/09/09 12:46:11;;;;;;;;;;;;;;;;;;5091232;28;19908;-69
2023/09/09 12:48:37;;;;;;;;;;;;;;;;;;5091606;28;19958;-69
2023/09/09 12:51:03;;;;;;;;;;;;;;;;;;5091401;28;19908;-68
2023/09/09 12:53:29;;;;;;;;;;;;;;;;;;5091381;28;19909;-69
2023/09/09 12:55:55;;;;;;;;;;;;;;;;;;5091771;28;19974;-69
2023/09/09 12:58:21;;;;;;;;;;;;;;;;;;5091176;28;20378;-69
2023/09/09 13:00:47;;;;;;;;;;;;;;;;;;5091564;28;20046;-69
2023/09/09 13:03:13;;;;;;;;;;;;;;;;;;5091342;28;19991;-68
2023/09/09 13:05:39;;;;;;;;;;;;;;;;;;5091334;28;20397;-69
2023/09/09 13:08:05;;;;;;;;;;;;;;;;;;5091289;28;19959;-70
2023/09/09 13:10:31;;;;;;;;;;;;;;;;;;5091160;28;19939;-70
2023/09/09 13:12:57;;;;;;;;;;;;;;;;;;5090937;28;19991;-70
2023/09/09 13:15:25;;;;;;;;;;;;;;;;;;5073030;28;19912;-69
2023/09/09 13:17:52;;;;;;;;;;;;;;;;;;5091373;28;20003;-69
2023/09/09 13:20:18;;;;;;;;;;;;;;;;;;5090674;28;19974;-69
2023/09/09 13:22:44;;;;;;;;;;;;;;;;;;5090384;28;20001;-67
2023/09/09 13:25:10;;;;;;;;;;;;;;;;;;5090627;28;20049;-68
2023/09/09 13:27:39;;;;;;;;;;;;;;;;;;5090952;28;19917;-69
2023/09/09 13:30:05;;;;;;;;;;;;;;;;;;5089906;28;20340;-70
2023/09/09 13:32:31;;;;;;;;;;;;;;;;;;5090912;28;19912;-69
2023/09/09 13:34:57;;;;;;;;;;;;;;;;;;5090709;28;20385;-69
2023/09/09 13:37:23;;;;;;;;;;;;;;;;;;5089977;28;19943;-70
2023/09/09 13:39:49;;;;;;;;;;;;;;;;;;5090627;28;19908;-69
2023/09/09 13:42:15;;;;;;;;;;;;;;;;;;5090275;28;19915;-72
2023/09/09 13:44:41;;;;;;;;;;;;;;;;;;5090447;28;19955;-69
2023/09/09 13:47:07;;;;;;;;;;;;;;;;;;5090658;28;19920;-69
2023/09/09 13:49:35;;;;;;;;;;;;;;;;;;5089775;28;19943;-68
2023/09/09 13:52:01;;;;;;;;;;;;;;;;;;5090516;28;20291;-68
2023/09/09 13:54:27;;;;;;;;;;;;;;;;;;5090163;28;20009;-68
2023/09/09 13:56:54;;;;;;;;;;;;;;;;;;5089668;28;19947;-69
2023/09/09 13:59:20;;;;;;;;;;;;;;;;;;5072176;28;19915;-70
2023/09/09 14:01:45;;;;;;;;;;;;;;;;;;5090347;28;19943;-69
2023/09/09 14:04:11;;;;;;;;;;;;;;;;;;5090157;28;19939;-69
2023/09/09 14:06:37;;;;;;;;;;;;;;;;;;5090191;28;19962;-69
2023/09/09 14:09:03;;;;;;;;;;;;;;;;;;5089543;28;19908;-69
2023/09/09 14:11:29;;;;;;;;;;;;;;;;;;5090065;28;19951;-69
2023/09/09 14:13:55;;;;;;;;;;;;;;;;;;5089565;28;19950;-68
2023/09/09 14:16:21;;;;;;;;;;;;;;;;;;5089758;28;20794;-68
2023/09/09 14:18:47;;;;;;;;;;;;;;;;;;5089763;28;19970;-69
2023/09/09 14:21:13;;;;;;;;;;;;;;;;;;5089607;28;19943;-68
2023/09/09 14:23:40;;;;;;;;;;;;;;;;;;5089090;28;20274;-68
2023/09/09 14:26:06;;;;;;;;;;;;;;;;;;5088954;28;19919;-68
2023/09/09 14:28:32;;;;;;;;;;;;;;;;;;5089210;28;19917;-68
2023/09/09 14:30:58;;;;;;;;;;;;;;;;;;5089601;28;20313;-69
2023/09/09 14:33:24;;;;;;;;;;;;;;;;;;5089628;28;19924;-69
2023/09/09 14:35:50;;;;;;;;;;;;;;;;;;5090094;28;20029;-68
2023/09/09 14:38:17;;;;;;;;;;;;;;;;;;5089132;28;19943;-71
2023/09/09 14:40:43;;;;;;;;;;;;;;;;;;5071166;28;19908;-70
2023/09/09 14:43:09;;;;;;;;;;;;;;;;;;5089616;28;19978;-70
2023/09/09 14:45:34;;;;;;;;;;;;;;;;;;5089788;28;20036;-69
2023/09/09 14:48:00;;;;;;;;;;;;;;;;;;5071624;28;19952;-70
2023/09/09 14:50:26;;;;;;;;;;;;;;;;;;5087705;28;20001;-70
2023/09/09 14:52:52;;;;;;;;;;;;;;;;;;5088294;28;19993;-71
2023/09/09 14:55:19;;;;;;;;;;;;;;;;;;5088881;28;20011;-70
2023/09/09 14:57:44;;;;;;;;;;;;;;;;;;5088570;28;19919;-69
2023/09/09 15:00:10;;;;;;;;;;;;;;;;;;5088505;28;20333;-70
2023/09/09 15:02:36;;;;;;;;;;;;;;;;;;5088636;28;19951;-70
2023/09/09 15:05:03;;;;;;;;;;;;;;;;;;5089167;28;20003;-71
2023/09/09 15:07:28;;;;;;;;;;;;;;;;;;5088906;28;19916;-70
2023/09/09 15:09:54;;;;;;;;;;;;;;;;;;5089438;28;19955;-70
2023/09/09 15:12:20;;;;;;;;;;;;;;;;;;5089468;28;20402;-70
2023/09/09 15:14:46;;;;;;;;;;;;;;;;;;5089359;28;19946;-70
2023/09/09 15:17:12;;;;;;;;;;;;;;;;;;5089450;28;19955;-71
2023/09/09 15:19:38;;;;;;;;;;;;;;;;;;5088805;28;19951;-71
2023/09/09 15:22:04;;;;;;;;;;;;;;;;;;5089235;28;19930;-71
2023/09/09 15:24:30;;;;;;;;;;;;;;;;;;5089229;28;20027;-71
2023/09/09 15:26:56;;;;;;;;;;;;;;;;;;5088901;28;20087;-71
2023/09/09 15:29:22;;;;;;;;;;;;;;;;;;5089329;28;19908;-71
2023/09/09 15:31:48;;;;;;;;;;;;;;;;;;5088847;28;20023;-71
2023/09/09 15:34:15;;;;;;;;;;;;;;;;;;5089624;28;19923;-71
2023/09/09 15:36:41;;;;;;;;;;;;;;;;;;5092162;28;19912;-70
2023/09/09 15:39:09;;;;;;;;;;;;;;;;;;5092939;28;19973;-70
2023/09/09 15:41:37;;;;;;;;;;;;;;;;;;5092915;28;20008;-71
2023/09/09 15:44:03;;;;;;;;;;;;;;;;;;5093125;28;19912;-71
2023/09/09 15:46:29;;;;;;;;;;;;;;;;;;5093244;28;19912;-71
2023/09/09 15:48:55;;;;;;;;;;;;;;;;;;5092493;28;19943;-69
2023/09/09 15:51:24;;;;;;;;;;;;;;;;;;5092690;28;19912;-70
2023/09/09 15:53:50;;;;;;;;;;;;;;;;;;5092895;28;19912;-70
2023/09/09 15:56:16;;;;;;;;;;;;;;;;;;5092084;28;20007;-70
2023/09/09 15:58:42;;;;;;;;;;;;;;;;;;5092086;28;19931;-70
2023/09/09 16:01:08;;;;;;;;;;;;;;;;;;5093078;28;19912;-71
2023/09/09 16:03:34;;;;;;;;;;;;;;;;;;5092337;28;19979;-70
2023/09/09 16:06:02;;;;;;;;;;;;;;;;;;5092228;28;20030;-71
2023/09/09 16:08:29;;;;;;;;;;;;;;;;;;5092833;28;20403;-70
2023/09/09 16:10:55;;;;;;;;;;;;;;;;;;5092457;28;19916;-71
2023/09/09 16:13:21;;;;;;;;;;;;;;;;;;5092006;28;19955;-70
2023/09/09 16:15:47;;;;;;;;;;;;;;;;;;5092365;28;19950;-71
2023/09/09 16:18:13;;;;;;;;;;;;;;;;;;5092363;28;19991;-71
2023/09/09 16:20:39;;;;;;;;;;;;;;;;;;5092213;28;19985;-71
2023/09/09 16:23:05;;;;;;;;;;;;;;;;;;5092533;28;20360;-71
2023/09/09 16:25:30;;;;;;;;;;;;;;;;;;5092294;28;19952;-71
2023/09/09 16:27:56;;;;;;;;;;;;;;;;;;5092122;28;19959;-70
2023/09/09 16:30:22;;;;;;;;;;;;;;;;;;5092782;28;20012;-71
2023/09/09 16:32:49;;;;;;;;;;;;;;;;;;5093647;28;19915;-71
2023/09/09 16:35:16;;;;;;;;;;;;;;;;;;5093474;28;20293;-71
2023/09/09 16:37:42;;;;;;;;;;;;;;;;;;5094224;28;19960;-71